sensor_id;sensor_type;location;lat;lon;timestamp;P1;durP1;ratioP1;P2;durP2;ratioP2
50066;SDS011;35952;52.524;13.340;2024-02-26T00:02:14;12.97;;;7.47;;
50066;SDS011;35952;52.524;13.340;2024-02-26T00:04:40;9.97;;;8.67;;
50066;SDS011;35952;52.524;13.340;2024-02-26T00:07:06;14.10;;;9.27;;
50066;SDS011;35952;52.524;13.340;2024-02-26T00:09:31;13.03;;;9.30;;
50066;SDS011;35952;52.524;13.340;2024-02-26T00:12:00;12.00;;;9.40;;
50066;SDS011;35952;52.524;13.340;2024-02-26T00:14:26;10.30;;;8.70;;
50066;SDS011;35952;52.524;13.340;2024-02-26T00:16:51;13.00;;;8.90;;
50066;SDS011;35952;52.524;13.340;2024-02-26T00:19:17;11.17;;;9.37;;
50066;SDS011;35952;52.524;13.340;2024-02-26T00:21:43;12.60;;;8.53;;
50066;SDS011;35952;52.524;13.340;2024-02-26T00:24:08;11.43;;;8.33;;
50066;SDS011;35952;52.524;13.340;2024-02-26T00:26:34;12.00;;;8.97;;
50066;SDS011;35952;52.524;13.340;2024-02-26T00:28:59;11.50;;;8.03;;
50066;SDS011;35952;52.524;13.340;2024-02-26T00:31:25;11.27;;;9.23;;
50066;SDS011;35952;52.524;13.340;2024-02-26T00:33:50;13.63;;;8.53;;
50066;SDS011;35952;52.524;13.340;2024-02-26T00:36:16;12.57;;;8.70;;
50066;SDS011;35952;52.524;13.340;2024-02-26T00:38:43;11.07;;;8.40;;
50066;SDS011;35952;52.524;13.340;2024-02-26T00:41:09;14.93;;;8.70;;
50066;SDS011;35952;52.524;13.340;2024-02-26T00:43:35;11.20;;;8.70;;
50066;SDS011;35952;52.524;13.340;2024-02-26T00:46:03;11.83;;;9.77;;
50066;SDS011;35952;52.524;13.340;2024-02-26T00:48:28;9.90;;;8.87;;
50066;SDS011;35952;52.524;13.340;2024-02-26T00:50:54;11.90;;;9.60;;
50066;SDS011;35952;52.524;13.340;2024-02-26T00:53:19;13.80;;;8.73;;
50066;SDS011;35952;52.524;13.340;2024-02-26T00:55:45;15.47;;;10.47;;
50066;SDS011;35952;52.524;13.340;2024-02-26T00:58:11;14.83;;;9.83;;
50066;SDS011;35952;52.524;13.340;2024-02-26T01:00:36;15.17;;;10.10;;
50066;SDS011;35952;52.524;13.340;2024-02-26T01:03:02;14.13;;;9.97;;
50066;SDS011;35952;52.524;13.340;2024-02-26T01:05:28;13.83;;;10.97;;
50066;SDS011;35952;52.524;13.340;2024-02-26T01:07:54;14.00;;;10.33;;
50066;SDS011;35952;52.524;13.340;2024-02-26T01:10:20;13.50;;;10.13;;
50066;SDS011;35952;52.524;13.340;2024-02-26T01:12:45;17.50;;;10.10;;
50066;SDS011;35952;52.524;13.340;2024-02-26T01:15:11;15.90;;;10.47;;
50066;SDS011;35952;52.524;13.340;2024-02-26T01:17:37;12.70;;;10.40;;
50066;SDS011;35952;52.524;13.340;2024-02-26T01:20:04;14.57;;;10.23;;
50066;SDS011;35952;52.524;13.340;2024-02-26T01:22:30;10.77;;;9.67;;
50066;SDS011;35952;52.524;13.340;2024-02-26T01:24:55;13.97;;;10.30;;
50066;SDS011;35952;52.524;13.340;2024-02-26T01:27:21;15.80;;;11.70;;
50066;SDS011;35952;52.524;13.340;2024-02-26T01:29:51;16.97;;;9.67;;
50066;SDS011;35952;52.524;13.340;2024-02-26T01:32:17;18.13;;;11.37;;
50066;SDS011;35952;52.524;13.340;2024-02-26T01:34:43;15.40;;;11.10;;
50066;SDS011;35952;52.524;13.340;2024-02-26T01:37:08;16.90;;;11.13;;
50066;SDS011;35952;52.524;13.340;2024-02-26T01:39:34;18.57;;;11.13;;
50066;SDS011;35952;52.524;13.340;2024-02-26T01:42:00;19.20;;;11.93;;
50066;SDS011;35952;52.524;13.340;2024-02-26T01:44:26;15.83;;;12.13;;
50066;SDS011;35952;52.524;13.340;2024-02-26T01:46:52;15.83;;;11.73;;
50066;SDS011;35952;52.524;13.340;2024-02-26T01:49:18;20.13;;;13.30;;
50066;SDS011;35952;52.524;13.340;2024-02-26T01:51:45;21.10;;;13.40;;
50066;SDS011;35952;52.524;13.340;2024-02-26T01:54:11;24.47;;;14.60;;
50066;SDS011;35952;52.524;13.340;2024-02-26T01:56:37;18.10;;;13.73;;
50066;SDS011;35952;52.524;13.340;2024-02-26T01:59:04;32.93;;;16.67;;
50066;SDS011;35952;52.524;13.340;2024-02-26T02:01:32;30.83;;;15.70;;
50066;SDS011;35952;52.524;13.340;2024-02-26T02:03:59;18.77;;;13.70;;
50066;SDS011;35952;52.524;13.340;2024-02-26T02:06:25;24.67;;;15.70;;
50066;SDS011;35952;52.524;13.340;2024-02-26T02:08:52;18.10;;;14.10;;
50066;SDS011;35952;52.524;13.340;2024-02-26T02:11:19;16.60;;;13.13;;
50066;SDS011;35952;52.524;13.340;2024-02-26T02:13:45;16.00;;;11.73;;
50066;SDS011;35952;52.524;13.340;2024-02-26T02:16:11;17.63;;;12.90;;
50066;SDS011;35952;52.524;13.340;2024-02-26T02:18:37;19.10;;;12.93;;
50066;SDS011;35952;52.524;13.340;2024-02-26T02:21:02;17.60;;;11.77;;
50066;SDS011;35952;52.524;13.340;2024-02-26T02:23:28;16.40;;;11.93;;
50066;SDS011;35952;52.524;13.340;2024-02-26T02:25:54;16.00;;;11.90;;
50066;SDS011;35952;52.524;13.340;2024-02-26T02:28:21;19.40;;;12.97;;
50066;SDS011;35952;52.524;13.340;2024-02-26T02:30:48;27.00;;;14.50;;
50066;SDS011;35952;52.524;13.340;2024-02-26T02:33:14;16.20;;;12.83;;
50066;SDS011;35952;52.524;13.340;2024-02-26T02:35:40;14.50;;;11.97;;
50066;SDS011;35952;52.524;13.340;2024-02-26T02:38:06;15.10;;;13.60;;
50066;SDS011;35952;52.524;13.340;2024-02-26T02:40:32;14.00;;;12.37;;
50066;SDS011;35952;52.524;13.340;2024-02-26T02:42:57;14.37;;;12.83;;
50066;SDS011;35952;52.524;13.340;2024-02-26T02:45:23;14.23;;;12.80;;
50066;SDS011;35952;52.524;13.340;2024-02-26T02:47:49;15.80;;;12.20;;
50066;SDS011;35952;52.524;13.340;2024-02-26T02:50:15;17.03;;;13.30;;
50066;SDS011;35952;52.524;13.340;2024-02-26T02:52:40;19.10;;;12.90;;
50066;SDS011;35952;52.524;13.340;2024-02-26T02:55:06;15.50;;;13.23;;
50066;SDS011;35952;52.524;13.340;2024-02-26T02:57:32;13.60;;;12.20;;
50066;SDS011;35952;52.524;13.340;2024-02-26T03:00:05;15.47;;;12.80;;
50066;SDS011;35952;52.524;13.340;2024-02-26T03:02:34;14.33;;;12.80;;
50066;SDS011;35952;52.524;13.340;2024-02-26T03:05:03;12.57;;;11.40;;
50066;SDS011;35952;52.524;13.340;2024-02-26T03:07:29;14.57;;;12.30;;
50066;SDS011;35952;52.524;13.340;2024-02-26T03:09:55;11.97;;;10.67;;
50066;SDS011;35952;52.524;13.340;2024-02-26T03:12:20;11.20;;;9.30;;
50066;SDS011;35952;52.524;13.340;2024-02-26T03:14:46;13.63;;;10.53;;
50066;SDS011;35952;52.524;13.340;2024-02-26T03:17:11;13.80;;;9.83;;
50066;SDS011;35952;52.524;13.340;2024-02-26T03:19:37;12.33;;;10.90;;
50066;SDS011;35952;52.524;13.340;2024-02-26T03:22:02;12.60;;;10.83;;
50066;SDS011;35952;52.524;13.340;2024-02-26T03:24:28;15.43;;;9.90;;
50066;SDS011;35952;52.524;13.340;2024-02-26T03:26:54;10.13;;;9.03;;
50066;SDS011;35952;52.524;13.340;2024-02-26T03:29:19;9.80;;;8.90;;
50066;SDS011;35952;52.524;13.340;2024-02-26T03:31:45;13.73;;;9.87;;
50066;SDS011;35952;52.524;13.340;2024-02-26T03:34:10;13.33;;;10.67;;
50066;SDS011;35952;52.524;13.340;2024-02-26T03:36:37;13.83;;;9.60;;
50066;SDS011;35952;52.524;13.340;2024-02-26T03:39:03;10.17;;;9.17;;
50066;SDS011;35952;52.524;13.340;2024-02-26T03:41:32;12.00;;;9.70;;
50066;SDS011;35952;52.524;13.340;2024-02-26T03:43:58;17.37;;;8.83;;
50066;SDS011;35952;52.524;13.340;2024-02-26T03:46:23;9.30;;;8.40;;
50066;SDS011;35952;52.524;13.340;2024-02-26T03:48:49;11.87;;;9.17;;
50066;SDS011;35952;52.524;13.340;2024-02-26T03:51:14;10.33;;;9.30;;
50066;SDS011;35952;52.524;13.340;2024-02-26T03:53:40;9.17;;;8.33;;
50066;SDS011;35952;52.524;13.340;2024-02-26T03:56:06;11.57;;;8.70;;
50066;SDS011;35952;52.524;13.340;2024-02-26T03:58:32;10.00;;;8.00;;
50066;SDS011;35952;52.524;13.340;2024-02-26T04:00:58;12.80;;;8.67;;
50066;SDS011;35952;52.524;13.340;2024-02-26T04:03:24;9.87;;;8.93;;
50066;SDS011;35952;52.524;13.340;2024-02-26T04:05:50;10.27;;;9.13;;
50066;SDS011;35952;52.524;13.340;2024-02-26T04:08:16;9.27;;;8.33;;
50066;SDS011;35952;52.524;13.340;2024-02-26T04:10:41;10.70;;;9.60;;
50066;SDS011;35952;52.524;13.340;2024-02-26T04:13:07;9.63;;;8.57;;
50066;SDS011;35952;52.524;13.340;2024-02-26T04:15:33;9.43;;;8.30;;
50066;SDS011;35952;52.524;13.340;2024-02-26T04:17:59;13.07;;;9.97;;
50066;SDS011;35952;52.524;13.340;2024-02-26T04:20:24;10.10;;;8.80;;
50066;SDS011;35952;52.524;13.340;2024-02-26T04:22:50;9.23;;;8.40;;
50066;SDS011;35952;52.524;13.340;2024-02-26T04:25:16;13.60;;;9.20;;
50066;SDS011;35952;52.524;13.340;2024-02-26T04:27:41;9.63;;;8.63;;
50066;SDS011;35952;52.524;13.340;2024-02-26T04:30:07;11.47;;;8.47;;
50066;SDS011;35952;52.524;13.340;2024-02-26T04:32:33;10.10;;;9.10;;
50066;SDS011;35952;52.524;13.340;2024-02-26T04:34:59;9.30;;;8.43;;
50066;SDS011;35952;52.524;13.340;2024-02-26T04:37:25;10.27;;;9.17;;
50066;SDS011;35952;52.524;13.340;2024-02-26T04:39:55;11.20;;;8.90;;
50066;SDS011;35952;52.524;13.340;2024-02-26T04:42:23;11.73;;;9.73;;
50066;SDS011;35952;52.524;13.340;2024-02-26T04:44:48;14.43;;;9.77;;
50066;SDS011;35952;52.524;13.340;2024-02-26T04:47:14;10.50;;;9.50;;
50066;SDS011;35952;52.524;13.340;2024-02-26T04:49:39;14.63;;;9.40;;
50066;SDS011;35952;52.524;13.340;2024-02-26T04:52:05;12.23;;;10.20;;
50066;SDS011;35952;52.524;13.340;2024-02-26T04:54:30;11.40;;;9.80;;
50066;SDS011;35952;52.524;13.340;2024-02-26T04:56:56;10.97;;;9.90;;
50066;SDS011;35952;52.524;13.340;2024-02-26T04:59:21;10.47;;;9.37;;
50066;SDS011;35952;52.524;13.340;2024-02-26T05:01:47;12.47;;;11.17;;
50066;SDS011;35952;52.524;13.340;2024-02-26T05:04:12;13.87;;;11.03;;
50066;SDS011;35952;52.524;13.340;2024-02-26T05:06:38;12.17;;;10.87;;
50066;SDS011;35952;52.524;13.340;2024-02-26T05:09:03;11.67;;;10.57;;
50066;SDS011;35952;52.524;13.340;2024-02-26T05:11:29;13.70;;;11.50;;
50066;SDS011;35952;52.524;13.340;2024-02-26T05:13:54;12.83;;;11.13;;
50066;SDS011;35952;52.524;13.340;2024-02-26T05:16:20;11.43;;;10.23;;
50066;SDS011;35952;52.524;13.340;2024-02-26T05:18:49;15.13;;;10.70;;
50066;SDS011;35952;52.524;13.340;2024-02-26T05:21:15;13.20;;;10.93;;
50066;SDS011;35952;52.524;13.340;2024-02-26T05:23:40;14.50;;;10.37;;
50066;SDS011;35952;52.524;13.340;2024-02-26T05:26:08;11.80;;;10.50;;
50066;SDS011;35952;52.524;13.340;2024-02-26T05:28:34;13.20;;;10.50;;
50066;SDS011;35952;52.524;13.340;2024-02-26T05:30:59;13.37;;;11.07;;
50066;SDS011;35952;52.524;13.340;2024-02-26T05:33:25;13.53;;;11.10;;
50066;SDS011;35952;52.524;13.340;2024-02-26T05:35:51;16.70;;;10.67;;
50066;SDS011;35952;52.524;13.340;2024-02-26T05:38:16;12.50;;;10.90;;
50066;SDS011;35952;52.524;13.340;2024-02-26T05:40:41;13.43;;;11.60;;
50066;SDS011;35952;52.524;13.340;2024-02-26T05:43:07;15.07;;;12.13;;
50066;SDS011;35952;52.524;13.340;2024-02-26T05:45:32;16.13;;;11.70;;
50066;SDS011;35952;52.524;13.340;2024-02-26T05:47:58;16.37;;;11.80;;
50066;SDS011;35952;52.524;13.340;2024-02-26T05:50:24;19.23;;;12.37;;
50066;SDS011;35952;52.524;13.340;2024-02-26T05:52:50;15.30;;;11.33;;
50066;SDS011;35952;52.524;13.340;2024-02-26T05:55:16;14.23;;;11.43;;
50066;SDS011;35952;52.524;13.340;2024-02-26T05:57:41;16.47;;;12.17;;
50066;SDS011;35952;52.524;13.340;2024-02-26T06:00:07;14.40;;;12.30;;
50066;SDS011;35952;52.524;13.340;2024-02-26T06:02:33;14.93;;;12.23;;
50066;SDS011;35952;52.524;13.340;2024-02-26T06:04:58;14.20;;;12.13;;
50066;SDS011;35952;52.524;13.340;2024-02-26T06:07:24;18.07;;;13.20;;
50066;SDS011;35952;52.524;13.340;2024-02-26T06:09:50;14.13;;;11.90;;
50066;SDS011;35952;52.524;13.340;2024-02-26T06:12:15;15.27;;;12.30;;
50066;SDS011;35952;52.524;13.340;2024-02-26T06:14:44;18.00;;;13.17;;
50066;SDS011;35952;52.524;13.340;2024-02-26T06:17:09;17.50;;;12.80;;
50066;SDS011;35952;52.524;13.340;2024-02-26T06:19:35;17.13;;;13.93;;
50066;SDS011;35952;52.524;13.340;2024-02-26T06:22:00;20.57;;;13.10;;
50066;SDS011;35952;52.524;13.340;2024-02-26T06:24:26;20.53;;;13.60;;
50066;SDS011;35952;52.524;13.340;2024-02-26T06:26:51;18.20;;;13.37;;
50066;SDS011;35952;52.524;13.340;2024-02-26T06:29:17;17.80;;;14.70;;
50066;SDS011;35952;52.524;13.340;2024-02-26T06:31:42;16.40;;;14.27;;
50066;SDS011;35952;52.524;13.340;2024-02-26T06:34:08;18.37;;;14.13;;
50066;SDS011;35952;52.524;13.340;2024-02-26T06:36:34;17.30;;;13.83;;
50066;SDS011;35952;52.524;13.340;2024-02-26T06:38:59;26.57;;;16.00;;
50066;SDS011;35952;52.524;13.340;2024-02-26T06:41:25;20.30;;;16.53;;
50066;SDS011;35952;52.524;13.340;2024-02-26T06:43:55;18.77;;;14.93;;
50066;SDS011;35952;52.524;13.340;2024-02-26T06:46:21;22.30;;;14.60;;
50066;SDS011;35952;52.524;13.340;2024-02-26T06:48:48;19.50;;;13.97;;
50066;SDS011;35952;52.524;13.340;2024-02-26T06:51:14;17.70;;;14.73;;
50066;SDS011;35952;52.524;13.340;2024-02-26T06:53:40;16.93;;;14.67;;
50066;SDS011;35952;52.524;13.340;2024-02-26T06:56:05;21.70;;;15.33;;
50066;SDS011;35952;52.524;13.340;2024-02-26T06:58:31;20.43;;;15.20;;
50066;SDS011;35952;52.524;13.340;2024-02-26T07:00:56;20.93;;;15.13;;
50066;SDS011;35952;52.524;13.340;2024-02-26T07:03:22;18.63;;;15.73;;
50066;SDS011;35952;52.524;13.340;2024-02-26T07:05:48;22.83;;;17.33;;
50066;SDS011;35952;52.524;13.340;2024-02-26T07:08:13;21.43;;;15.47;;
50066;SDS011;35952;52.524;13.340;2024-02-26T07:10:39;22.20;;;16.00;;
50066;SDS011;35952;52.524;13.340;2024-02-26T07:13:04;32.57;;;23.50;;
50066;SDS011;35952;52.524;13.340;2024-02-26T07:15:30;23.00;;;16.73;;
50066;SDS011;35952;52.524;13.340;2024-02-26T07:17:55;23.00;;;16.67;;
50066;SDS011;35952;52.524;13.340;2024-02-26T07:20:21;24.37;;;16.33;;
50066;SDS011;35952;52.524;13.340;2024-02-26T07:22:46;22.80;;;16.57;;
50066;SDS011;35952;52.524;13.340;2024-02-26T07:25:12;19.50;;;16.87;;
50066;SDS011;35952;52.524;13.340;2024-02-26T07:27:38;21.27;;;16.10;;
50066;SDS011;35952;52.524;13.340;2024-02-26T07:30:05;25.70;;;16.87;;
50066;SDS011;35952;52.524;13.340;2024-02-26T07:32:32;20.90;;;16.17;;
50066;SDS011;35952;52.524;13.340;2024-02-26T07:34:58;21.63;;;17.13;;
50066;SDS011;35952;52.524;13.340;2024-02-26T07:37:24;21.90;;;17.00;;
50066;SDS011;35952;52.524;13.340;2024-02-26T07:39:49;20.50;;;17.50;;
50066;SDS011;35952;52.524;13.340;2024-02-26T07:42:15;25.67;;;18.00;;
50066;SDS011;35952;52.524;13.340;2024-02-26T07:44:40;18.80;;;15.87;;
50066;SDS011;35952;52.524;13.340;2024-02-26T07:47:08;20.33;;;16.40;;
50066;SDS011;35952;52.524;13.340;2024-02-26T07:49:36;19.00;;;16.07;;
50066;SDS011;35952;52.524;13.340;2024-02-26T07:52:02;22.63;;;17.70;;
50066;SDS011;35952;52.524;13.340;2024-02-26T07:54:27;23.00;;;16.90;;
50066;SDS011;35952;52.524;13.340;2024-02-26T07:56:53;25.53;;;16.90;;
50066;SDS011;35952;52.524;13.340;2024-02-26T07:59:18;21.90;;;17.13;;
50066;SDS011;35952;52.524;13.340;2024-02-26T08:01:44;20.30;;;17.10;;
50066;SDS011;35952;52.524;13.340;2024-02-26T08:04:13;23.57;;;17.40;;
50066;SDS011;35952;52.524;13.340;2024-02-26T08:06:39;29.00;;;16.23;;
50066;SDS011;35952;52.524;13.340;2024-02-26T08:09:05;25.27;;;18.27;;
50066;SDS011;35952;52.524;13.340;2024-02-26T08:11:30;24.60;;;18.13;;
50066;SDS011;35952;52.524;13.340;2024-02-26T08:13:56;24.50;;;17.97;;
50066;SDS011;35952;52.524;13.340;2024-02-26T08:16:21;25.47;;;18.83;;
50066;SDS011;35952;52.524;13.340;2024-02-26T08:18:47;23.63;;;17.60;;
50066;SDS011;35952;52.524;13.340;2024-02-26T08:21:12;20.47;;;17.30;;
50066;SDS011;35952;52.524;13.340;2024-02-26T08:23:38;23.13;;;17.50;;
50066;SDS011;35952;52.524;13.340;2024-02-26T08:26:03;20.90;;;17.00;;
50066;SDS011;35952;52.524;13.340;2024-02-26T08:28:32;22.13;;;16.83;;
50066;SDS011;35952;52.524;13.340;2024-02-26T08:30:57;22.73;;;18.00;;
50066;SDS011;35952;52.524;13.340;2024-02-26T08:33:23;25.93;;;17.73;;
50066;SDS011;35952;52.524;13.340;2024-02-26T08:35:48;21.90;;;18.50;;
50066;SDS011;35952;52.524;13.340;2024-02-26T08:38:14;23.03;;;17.00;;
50066;SDS011;35952;52.524;13.340;2024-02-26T08:40:40;22.10;;;17.13;;
50066;SDS011;35952;52.524;13.340;2024-02-26T08:43:05;24.47;;;18.50;;
50066;SDS011;35952;52.524;13.340;2024-02-26T08:45:31;23.93;;;18.57;;
50066;SDS011;35952;52.524;13.340;2024-02-26T08:47:56;23.53;;;17.00;;
50066;SDS011;35952;52.524;13.340;2024-02-26T08:50:23;29.93;;;18.60;;
50066;SDS011;35952;52.524;13.340;2024-02-26T08:52:48;23.03;;;18.20;;
50066;SDS011;35952;52.524;13.340;2024-02-26T08:55:16;21.80;;;18.00;;
50066;SDS011;35952;52.524;13.340;2024-02-26T08:57:42;23.77;;;19.67;;
50066;SDS011;35952;52.524;13.340;2024-02-26T09:00:07;19.80;;;17.70;;
50066;SDS011;35952;52.524;13.340;2024-02-26T09:02:33;29.07;;;18.63;;
50066;SDS011;35952;52.524;13.340;2024-02-26T09:04:59;21.10;;;18.03;;
50066;SDS011;35952;52.524;13.340;2024-02-26T09:07:24;22.63;;;19.00;;
50066;SDS011;35952;52.524;13.340;2024-02-26T09:09:50;22.07;;;17.90;;
50066;SDS011;35952;52.524;13.340;2024-02-26T09:12:16;23.17;;;17.93;;
50066;SDS011;35952;52.524;13.340;2024-02-26T09:14:41;23.73;;;18.43;;
50066;SDS011;35952;52.524;13.340;2024-02-26T09:17:06;24.23;;;18.27;;
50066;SDS011;35952;52.524;13.340;2024-02-26T09:19:32;22.70;;;17.13;;
50066;SDS011;35952;52.524;13.340;2024-02-26T09:21:58;22.70;;;17.93;;
50066;SDS011;35952;52.524;13.340;2024-02-26T09:24:24;20.03;;;16.60;;
50066;SDS011;35952;52.524;13.340;2024-02-26T09:26:49;24.60;;;17.90;;
50066;SDS011;35952;52.524;13.340;2024-02-26T09:29:15;29.70;;;17.37;;
50066;SDS011;35952;52.524;13.340;2024-02-26T09:31:42;24.60;;;18.37;;
50066;SDS011;35952;52.524;13.340;2024-02-26T09:34:08;22.53;;;18.40;;
50066;SDS011;35952;52.524;13.340;2024-02-26T09:36:34;24.30;;;18.80;;
50066;SDS011;35952;52.524;13.340;2024-02-26T09:38:59;26.27;;;18.00;;
50066;SDS011;35952;52.524;13.340;2024-02-26T09:41:26;20.30;;;18.00;;
50066;SDS011;35952;52.524;13.340;2024-02-26T09:43:55;20.33;;;18.13;;
50066;SDS011;35952;52.524;13.340;2024-02-26T09:46:22;22.53;;;17.90;;
50066;SDS011;35952;52.524;13.340;2024-02-26T09:48:48;24.13;;;17.80;;
50066;SDS011;35952;52.524;13.340;2024-02-26T09:51:14;24.23;;;18.43;;
50066;SDS011;35952;52.524;13.340;2024-02-26T09:53:42;23.40;;;18.50;;
50066;SDS011;35952;52.524;13.340;2024-02-26T09:56:10;23.40;;;17.30;;
50066;SDS011;35952;52.524;13.340;2024-02-26T09:58:37;19.27;;;15.57;;
50066;SDS011;35952;52.524;13.340;2024-02-26T10:01:04;22.40;;;16.60;;
50066;SDS011;35952;52.524;13.340;2024-02-26T10:03:39;18.83;;;16.80;;
50066;SDS011;35952;52.524;13.340;2024-02-26T10:06:07;22.37;;;16.73;;
50066;SDS011;35952;52.524;13.340;2024-02-26T10:08:34;22.00;;;16.10;;
50066;SDS011;35952;52.524;13.340;2024-02-26T10:11:00;19.10;;;15.80;;
50066;SDS011;35952;52.524;13.340;2024-02-26T10:13:26;22.40;;;17.23;;
50066;SDS011;35952;52.524;13.340;2024-02-26T10:15:51;20.77;;;16.87;;
50066;SDS011;35952;52.524;13.340;2024-02-26T10:18:17;19.50;;;15.90;;
50066;SDS011;35952;52.524;13.340;2024-02-26T10:20:44;20.60;;;15.93;;
50066;SDS011;35952;52.524;13.340;2024-02-26T10:23:27;22.73;;;16.00;;
50066;SDS011;35952;52.524;13.340;2024-02-26T10:25:53;24.30;;;15.17;;
50066;SDS011;35952;52.524;13.340;2024-02-26T10:28:20;19.00;;;15.40;;
50066;SDS011;35952;52.524;13.340;2024-02-26T10:30:46;19.87;;;15.27;;
50066;SDS011;35952;52.524;13.340;2024-02-26T10:33:11;18.00;;;15.83;;
50066;SDS011;35952;52.524;13.340;2024-02-26T10:35:38;18.00;;;15.70;;
50066;SDS011;35952;52.524;13.340;2024-02-26T10:38:05;20.80;;;15.37;;
50066;SDS011;35952;52.524;13.340;2024-02-26T10:40:32;14.83;;;13.17;;
50066;SDS011;35952;52.524;13.340;2024-02-26T10:42:58;19.80;;;15.10;;
50066;SDS011;35952;52.524;13.340;2024-02-26T10:45:23;19.73;;;14.20;;
50066;SDS011;35952;52.524;13.340;2024-02-26T10:47:49;16.53;;;14.33;;
50066;SDS011;35952;52.524;13.340;2024-02-26T10:50:15;17.30;;;15.57;;
50066;SDS011;35952;52.524;13.340;2024-02-26T10:52:41;17.50;;;14.97;;
50066;SDS011;35952;52.524;13.340;2024-02-26T10:55:07;15.70;;;13.90;;
50066;SDS011;35952;52.524;13.340;2024-02-26T10:57:39;18.63;;;13.60;;
50066;SDS011;35952;52.524;13.340;2024-02-26T11:00:06;17.27;;;15.40;;
50066;SDS011;35952;52.524;13.340;2024-02-26T11:02:33;17.23;;;13.87;;
50066;SDS011;35952;52.524;13.340;2024-02-26T11:05:00;19.37;;;14.30;;
50066;SDS011;35952;52.524;13.340;2024-02-26T11:07:28;13.67;;;12.00;;
50066;SDS011;35952;52.524;13.340;2024-02-26T11:09:56;18.00;;;13.10;;
50066;SDS011;35952;52.524;13.340;2024-02-26T11:12:22;17.17;;;12.83;;
50066;SDS011;35952;52.524;13.340;2024-02-26T11:14:49;15.63;;;12.37;;
50066;SDS011;35952;52.524;13.340;2024-02-26T11:17:19;17.60;;;12.77;;
50066;SDS011;35952;52.524;13.340;2024-02-26T11:19:46;15.93;;;12.53;;
50066;SDS011;35952;52.524;13.340;2024-02-26T11:22:13;12.67;;;11.37;;
50066;SDS011;35952;52.524;13.340;2024-02-26T11:24:38;14.43;;;12.47;;
50066;SDS011;35952;52.524;13.340;2024-02-26T11:27:06;13.97;;;12.57;;
50066;SDS011;35952;52.524;13.340;2024-02-26T11:29:40;17.13;;;13.70;;
50066;SDS011;35952;52.524;13.340;2024-02-26T11:32:09;13.53;;;12.10;;
50066;SDS011;35952;52.524;13.340;2024-02-26T11:34:35;15.77;;;13.57;;
50066;SDS011;35952;52.524;13.340;2024-02-26T11:37:14;13.83;;;11.70;;
50066;SDS011;35952;52.524;13.340;2024-02-26T11:39:41;13.60;;;11.83;;
50066;SDS011;35952;52.524;13.340;2024-02-26T11:42:07;15.27;;;13.67;;
50066;SDS011;35952;52.524;13.340;2024-02-26T11:44:34;14.40;;;12.23;;
50066;SDS011;35952;52.524;13.340;2024-02-26T11:47:14;14.80;;;13.20;;
50066;SDS011;35952;52.524;13.340;2024-02-26T11:49:46;15.90;;;13.53;;
50066;SDS011;35952;52.524;13.340;2024-02-26T11:52:13;15.30;;;13.70;;
50066;SDS011;35952;52.524;13.340;2024-02-26T11:57:20;16.90;;;13.10;;
50066;SDS011;35952;52.524;13.340;2024-02-26T11:59:47;16.37;;;13.87;;
50066;SDS011;35952;52.524;13.340;2024-02-26T12:02:36;16.67;;;14.20;;
50066;SDS011;35952;52.524;13.340;2024-02-26T12:05:09;18.60;;;15.50;;
50066;SDS011;35952;52.524;13.340;2024-02-26T12:07:46;19.70;;;15.30;;
50066;SDS011;35952;52.524;13.340;2024-02-26T12:10:26;28.23;;;20.13;;
50066;SDS011;35952;52.524;13.340;2024-02-26T12:13:03;15.00;;;13.40;;
50066;SDS011;35952;52.524;13.340;2024-02-26T12:15:38;16.00;;;14.27;;
50066;SDS011;35952;52.524;13.340;2024-02-26T12:18:05;16.47;;;13.80;;
50066;SDS011;35952;52.524;13.340;2024-02-26T12:20:32;15.53;;;13.77;;
50066;SDS011;35952;52.524;13.340;2024-02-26T12:22:58;18.43;;;14.23;;
50066;SDS011;35952;52.524;13.340;2024-02-26T12:25:25;18.60;;;13.93;;
50066;SDS011;35952;52.524;13.340;2024-02-26T12:27:51;17.57;;;14.23;;
50066;SDS011;35952;52.524;13.340;2024-02-26T12:30:21;16.73;;;13.37;;
50066;SDS011;35952;52.524;13.340;2024-02-26T12:32:47;18.33;;;15.00;;
50066;SDS011;35952;52.524;13.340;2024-02-26T12:35:14;19.87;;;14.27;;
50066;SDS011;35952;52.524;13.340;2024-02-26T12:37:41;14.67;;;12.83;;
50066;SDS011;35952;52.524;13.340;2024-02-26T12:40:10;20.27;;;14.10;;
50066;SDS011;35952;52.524;13.340;2024-02-26T12:42:37;18.03;;;12.53;;
50066;SDS011;35952;52.524;13.340;2024-02-26T12:45:07;14.30;;;12.27;;
50066;SDS011;35952;52.524;13.340;2024-02-26T12:47:41;14.00;;;11.87;;
50066;SDS011;35952;52.524;13.340;2024-02-26T12:50:08;12.47;;;11.17;;
50066;SDS011;35952;52.524;13.340;2024-02-26T12:52:35;13.20;;;11.60;;
50066;SDS011;35952;52.524;13.340;2024-02-26T12:55:06;13.30;;;11.80;;
50066;SDS011;35952;52.524;13.340;2024-02-26T12:57:34;11.70;;;10.50;;
50066;SDS011;35952;52.524;13.340;2024-02-26T13:00:02;14.00;;;10.87;;
50066;SDS011;35952;52.524;13.340;2024-02-26T13:02:34;14.30;;;11.97;;
50066;SDS011;35952;52.524;13.340;2024-02-26T13:05:01;11.90;;;10.50;;
50066;SDS011;35952;52.524;13.340;2024-02-26T13:07:31;10.80;;;9.70;;
50066;SDS011;35952;52.524;13.340;2024-02-26T13:09:58;10.93;;;9.73;;
50066;SDS011;35952;52.524;13.340;2024-02-26T13:12:23;12.77;;;9.90;;
50066;SDS011;35952;52.524;13.340;2024-02-26T13:14:58;13.43;;;10.87;;
50066;SDS011;35952;52.524;13.340;2024-02-26T13:17:31;10.80;;;9.70;;
50066;SDS011;35952;52.524;13.340;2024-02-26T13:19:57;11.40;;;8.53;;
50066;SDS011;35952;52.524;13.340;2024-02-26T13:22:22;11.93;;;8.10;;
50066;SDS011;35952;52.524;13.340;2024-02-26T13:24:55;10.60;;;8.37;;
50066;SDS011;35952;52.524;13.340;2024-02-26T13:27:22;12.67;;;9.10;;
50066;SDS011;35952;52.524;13.340;2024-02-26T13:29:48;9.10;;;8.10;;
50066;SDS011;35952;52.524;13.340;2024-02-26T13:32:13;11.63;;;8.67;;
50066;SDS011;35952;52.524;13.340;2024-02-26T13:34:39;9.27;;;8.27;;
50066;SDS011;35952;52.524;13.340;2024-02-26T13:37:05;9.80;;;7.40;;
50066;SDS011;35952;52.524;13.340;2024-02-26T13:39:30;8.80;;;6.83;;
50066;SDS011;35952;52.524;13.340;2024-02-26T13:41:56;7.60;;;6.90;;
50066;SDS011;35952;52.524;13.340;2024-02-26T13:44:22;9.00;;;6.20;;
50066;SDS011;35952;52.524;13.340;2024-02-26T13:46:48;7.40;;;6.60;;
50066;SDS011;35952;52.524;13.340;2024-02-26T13:49:17;10.60;;;7.07;;
50066;SDS011;35952;52.524;13.340;2024-02-26T13:51:42;8.87;;;7.13;;
50066;SDS011;35952;52.524;13.340;2024-02-26T13:54:08;6.87;;;5.47;;
50066;SDS011;35952;52.524;13.340;2024-02-26T13:56:35;7.37;;;6.40;;
50066;SDS011;35952;52.524;13.340;2024-02-26T13:59:01;6.60;;;6.00;;
50066;SDS011;35952;52.524;13.340;2024-02-26T14:01:26;5.63;;;5.10;;
50066;SDS011;35952;52.524;13.340;2024-02-26T14:03:53;8.73;;;6.20;;
50066;SDS011;35952;52.524;13.340;2024-02-26T14:06:21;9.20;;;6.27;;
50066;SDS011;35952;52.524;13.340;2024-02-26T14:08:47;8.60;;;6.47;;
50066;SDS011;35952;52.524;13.340;2024-02-26T14:11:12;6.90;;;6.23;;
50066;SDS011;35952;52.524;13.340;2024-02-26T14:13:38;8.13;;;7.30;;